sensor_id;sensor_type;location;lat;lon;timestamp;temperature;humidity
17033;DHT22;63208;52.178;21.016;2022-10-03T00:02:22;10.00;99.90
17033;DHT22;63208;52.178;21.016;2022-10-03T00:04:56;10.00;99.90
17033;DHT22;63208;52.178;21.016;2022-10-03T00:07:29;10.00;99.90
17033;DHT22;63208;52.178;21.016;2022-10-03T00:10:01;9.90;99.90
17033;DHT22;63208;52.178;21.016;2022-10-03T00:12:35;10.00;99.90
17033;DHT22;63208;52.178;21.016;2022-10-03T00:15:04;9.90;99.90
17033;DHT22;63208;52.178;21.016;2022-10-03T00:17:37;9.90;99.90
17033;DHT22;63208;52.178;21.016;2022-10-03T00:20:13;9.90;99.90
17033;DHT22;63208;52.178;21.016;2022-10-03T00:22:42;9.90;99.90
17033;DHT22;63208;52.178;21.016;2022-10-03T00:25:15;9.90;99.90
17033;DHT22;63208;52.178;21.016;2022-10-03T00:27:46;9.90;99.90
17033;DHT22;63208;52.178;21.016;2022-10-03T00:30:16;10.00;99.90
17033;DHT22;63208;52.178;21.016;2022-10-03T00:32:58;10.00;99.90
17033;DHT22;63208;52.178;21.016;2022-10-03T00:35:43;10.00;99.90
17033;DHT22;63208;52.178;21.016;2022-10-03T00:38:20;10.00;99.90
17033;DHT22;63208;52.178;21.016;2022-10-03T00:41:00;10.00;99.90
17033;DHT22;63208;52.178;21.016;2022-10-03T00:46:22;10.00;99.90
17033;DHT22;63208;52.178;21.016;2022-10-03T00:49:01;10.00;99.90
17033;DHT22;63208;52.178;21.016;2022-10-03T00:51:36;10.00;99.90
17033;DHT22;63208;52.178;21.016;2022-10-03T00:54:12;10.10;99.90
17033;DHT22;63208;52.178;21.016;2022-10-03T00:56:52;10.10;99.90
17033;DHT22;63208;52.178;21.016;2022-10-03T01:02:21;10.10;99.90
17033;DHT22;63208;52.178;21.016;2022-10-03T01:04:54;10.10;99.90
17033;DHT22;63208;52.178;21.016;2022-10-03T01:07:30;10.10;99.90
17033;DHT22;63208;52.178;21.016;2022-10-03T01:10:09;10.10;99.90
17033;DHT22;63208;52.178;21.016;2022-10-03T01:12:44;10.10;99.90
17033;DHT22;63208;52.178;21.016;2022-10-03T01:15:16;10.10;99.90
17033;DHT22;63208;52.178;21.016;2022-10-03T01:17:59;10.10;99.90
17033;DHT22;63208;52.178;21.016;2022-10-03T01:20:33;10.10;99.90
17033;DHT22;63208;52.178;21.016;2022-10-03T01:25:48;10.10;99.90
17033;DHT22;63208;52.178;21.016;2022-10-03T01:28:33;10.10;99.90
17033;DHT22;63208;52.178;21.016;2022-10-03T01:31:22;10.10;99.90
17033;DHT22;63208;52.178;21.016;2022-10-03T01:33:52;10.10;99.90
17033;DHT22;63208;52.178;21.016;2022-10-03T01:36:23;10.10;99.90
17033;DHT22;63208;52.178;21.016;2022-10-03T01:38:52;10.10;99.90
17033;DHT22;63208;52.178;21.016;2022-10-03T01:41:23;10.10;99.90
17033;DHT22;63208;52.178;21.016;2022-10-03T01:43:53;10.10;99.90
17033;DHT22;63208;52.178;21.016;2022-10-03T01:46:22;10.10;99.90
17033;DHT22;63208;52.178;21.016;2022-10-03T01:48:57;10.10;99.90
17033;DHT22;63208;52.178;21.016;2022-10-03T01:51:27;10.10;99.90
17033;DHT22;63208;52.178;21.016;2022-10-03T01:53:57;10.10;99.90
17033;DHT22;63208;52.178;21.016;2022-10-03T01:56:29;10.10;99.90
17033;DHT22;63208;52.178;21.016;2022-10-03T01:58:59;10.10;99.90
17033;DHT22;63208;52.178;21.016;2022-10-03T02:01:30;10.10;99.90
17033;DHT22;63208;52.178;21.016;2022-10-03T02:04:02;10.10;99.90
17033;DHT22;63208;52.178;21.016;2022-10-03T02:06:35;10.10;99.90
17033;DHT22;63208;52.178;21.016;2022-10-03T02:09:08;10.10;99.90
17033;DHT22;63208;52.178;21.016;2022-10-03T02:11:38;10.10;99.90
17033;DHT22;63208;52.178;21.016;2022-10-03T02:14:19;10.10;99.90
17033;DHT22;63208;52.178;21.016;2022-10-03T02:16:52;10.10;99.90
17033;DHT22;63208;52.178;21.016;2022-10-03T02:19:23;10.10;99.90
17033;DHT22;63208;52.178;21.016;2022-10-03T02:21:52;10.10;99.90
17033;DHT22;63208;52.178;21.016;2022-10-03T02:24:36;10.20;99.90
17033;DHT22;63208;52.178;21.016;2022-10-03T02:30:04;10.20;99.90
17033;DHT22;63208;52.178;21.016;2022-10-03T02:38:07;10.20;99.90
17033;DHT22;63208;52.178;21.016;2022-10-03T02:40:43;10.20;99.90
17033;DHT22;63208;52.178;21.016;2022-10-03T02:43:26;10.20;99.90
17033;DHT22;63208;52.178;21.016;2022-10-03T02:46:11;10.20;99.90
17033;DHT22;63208;52.178;21.016;2022-10-03T02:48:48;10.20;99.90
17033;DHT22;63208;52.178;21.016;2022-10-03T02:59:59;10.30;99.90
17033;DHT22;63208;52.178;21.016;2022-10-03T03:05:20;10.30;99.90
17033;DHT22;63208;52.178;21.016;2022-10-03T03:07:58;10.30;99.90
17033;DHT22;63208;52.178;21.016;2022-10-03T03:10:36;10.30;99.90
17033;DHT22;63208;52.178;21.016;2022-10-03T03:13:25;10.30;99.90
17033;DHT22;63208;52.178;21.016;2022-10-03T03:16:20;10.30;99.90
17033;DHT22;63208;52.178;21.016;2022-10-03T03:18:53;10.30;99.90
17033;DHT22;63208;52.178;21.016;2022-10-03T03:21:28;10.30;99.90
17033;DHT22;63208;52.178;21.016;2022-10-03T03:24:04;10.30;99.90
17033;DHT22;63208;52.178;21.016;2022-10-03T03:26:44;10.40;99.90
17033;DHT22;63208;52.178;21.016;2022-10-03T03:29:18;10.30;99.90
17033;DHT22;63208;52.178;21.016;2022-10-03T03:31:48;10.30;99.90
17033;DHT22;63208;52.178;21.016;2022-10-03T03:34:20;10.30;99.90
17033;DHT22;63208;52.178;21.016;2022-10-03T03:36:52;10.30;99.90
17033;DHT22;63208;52.178;21.016;2022-10-03T03:39:29;10.40;99.90
17033;DHT22;63208;52.178;21.016;2022-10-03T03:42:01;10.40;99.90
17033;DHT22;63208;52.178;21.016;2022-10-03T03:44:43;10.30;99.90
17033;DHT22;63208;52.178;21.016;2022-10-03T03:47:18;10.30;99.90
17033;DHT22;63208;52.178;21.016;2022-10-03T03:49:58;10.30;99.90
17033;DHT22;63208;52.178;21.016;2022-10-03T03:52:34;10.30;99.90
17033;DHT22;63208;52.178;21.016;2022-10-03T03:55:05;10.30;99.90
17033;DHT22;63208;52.178;21.016;2022-10-03T03:57:46;10.20;99.90
17033;DHT22;63208;52.178;21.016;2022-10-03T04:00:16;10.20;99.90
17033;DHT22;63208;52.178;21.016;2022-10-03T04:02:51;10.20;99.90
17033;DHT22;63208;52.178;21.016;2022-10-03T04:05:22;10.20;99.90
17033;DHT22;63208;52.178;21.016;2022-10-03T04:07:57;10.20;99.90
17033;DHT22;63208;52.178;21.016;2022-10-03T04:10:30;10.20;99.90
17033;DHT22;63208;52.178;21.016;2022-10-03T04:16:04;10.30;99.90
17033;DHT22;63208;52.178;21.016;2022-10-03T04:18:42;10.30;99.90
17033;DHT22;63208;52.178;21.016;2022-10-03T04:26:34;10.40;99.90
17033;DHT22;63208;52.178;21.016;2022-10-03T04:29:15;10.50;99.90
17033;DHT22;63208;52.178;21.016;2022-10-03T04:34:23;10.50;99.90
17033;DHT22;63208;52.178;21.016;2022-10-03T04:36:57;10.40;99.90
17033;DHT22;63208;52.178;21.016;2022-10-03T04:39:29;10.50;99.90
17033;DHT22;63208;52.178;21.016;2022-10-03T04:44:29;10.40;99.90
17033;DHT22;63208;52.178;21.016;2022-10-03T04:46:59;10.30;99.90
17033;DHT22;63208;52.178;21.016;2022-10-03T04:51:57;10.30;99.90
17033;DHT22;63208;52.178;21.016;2022-10-03T04:54:27;10.30;99.90
17033;DHT22;63208;52.178;21.016;2022-10-03T04:59:35;10.40;99.90
17033;DHT22;63208;52.178;21.016;2022-10-03T05:04:31;10.30;99.90
17033;DHT22;63208;52.178;21.016;2022-10-03T05:07:05;10.40;99.90
17033;DHT22;63208;52.178;21.016;2022-10-03T05:09:39;10.40;99.90
17033;DHT22;63208;52.178;21.016;2022-10-03T05:12:11;10.40;99.90
17033;DHT22;63208;52.178;21.016;2022-10-03T05:14:46;10.40;99.90
17033;DHT22;63208;52.178;21.016;2022-10-03T05:17:17;10.40;99.90
17033;DHT22;63208;52.178;21.016;2022-10-03T05:22:37;10.40;99.90
17033;DHT22;63208;52.178;21.016;2022-10-03T05:25:12;10.40;99.90
17033;DHT22;63208;52.178;21.016;2022-10-03T05:27:40;10.50;99.90
17033;DHT22;63208;52.178;21.016;2022-10-03T05:30:14;10.50;99.90
17033;DHT22;63208;52.178;21.016;2022-10-03T05:32:43;10.50;99.90
17033;DHT22;63208;52.178;21.016;2022-10-03T05:35:20;10.50;99.90
17033;DHT22;63208;52.178;21.016;2022-10-03T05:37:57;10.60;99.90
17033;DHT22;63208;52.178;21.016;2022-10-03T05:40:28;10.60;99.90
17033;DHT22;63208;52.178;21.016;2022-10-03T05:43:00;10.60;99.90
17033;DHT22;63208;52.178;21.016;2022-10-03T05:45:30;10.60;99.90
17033;DHT22;63208;52.178;21.016;2022-10-03T05:48:10;10.60;99.90
17033;DHT22;63208;52.178;21.016;2022-10-03T05:56:17;10.80;99.90
17033;DHT22;63208;52.178;21.016;2022-10-03T05:59:06;10.80;99.90
17033;DHT22;63208;52.178;21.016;2022-10-03T06:04:04;11.10;99.90
17033;DHT22;63208;52.178;21.016;2022-10-03T06:06:45;11.20;99.90
17033;DHT22;63208;52.178;21.016;2022-10-03T06:09:29;10.90;99.90
17033;DHT22;63208;52.178;21.016;2022-10-03T06:14:29;11.00;99.90
17033;DHT22;63208;52.178;21.016;2022-10-03T06:17:02;11.00;99.90
17033;DHT22;63208;52.178;21.016;2022-10-03T06:19:44;11.00;99.90
17033;DHT22;63208;52.178;21.016;2022-10-03T06:22:32;11.00;99.90
17033;DHT22;63208;52.178;21.016;2022-10-03T06:25:12;11.00;99.90
17033;DHT22;63208;52.178;21.016;2022-10-03T06:30:35;11.10;99.90
17033;DHT22;63208;52.178;21.016;2022-10-03T06:44:31;11.00;99.90
17033;DHT22;63208;52.178;21.016;2022-10-03T06:47:05;10.90;99.90
17033;DHT22;63208;52.178;21.016;2022-10-03T06:49:54;10.90;99.90
17033;DHT22;63208;52.178;21.016;2022-10-03T06:52:32;11.00;99.90
17033;DHT22;63208;52.178;21.016;2022-10-03T07:00:34;10.90;99.90
17033;DHT22;63208;52.178;21.016;2022-10-03T07:03:17;10.90;99.90
17033;DHT22;63208;52.178;21.016;2022-10-03T07:06:05;10.90;99.90
17033;DHT22;63208;52.178;21.016;2022-10-03T07:11:57;10.90;99.90
17033;DHT22;63208;52.178;21.016;2022-10-03T07:14:53;11.00;99.90
17033;DHT22;63208;52.178;21.016;2022-10-03T07:17:37;11.00;99.90
17033;DHT22;63208;52.178;21.016;2022-10-03T07:20:30;10.90;99.90
17033;DHT22;63208;52.178;21.016;2022-10-03T07:30:06;11.10;99.90
17033;DHT22;63208;52.178;21.016;2022-10-03T07:36:16;11.10;99.90
17033;DHT22;63208;52.178;21.016;2022-10-03T07:42:54;11.30;99.90
17033;DHT22;63208;52.178;21.016;2022-10-03T07:45:35;11.40;99.90
17033;DHT22;63208;52.178;21.016;2022-10-03T07:50:49;11.50;99.90
17033;DHT22;63208;52.178;21.016;2022-10-03T07:57:04;11.70;99.90
17033;DHT22;63208;52.178;21.016;2022-10-03T08:00:07;11.70;99.90
17033;DHT22;63208;52.178;21.016;2022-10-03T08:06:09;11.70;99.90
17033;DHT22;63208;52.178;21.016;2022-10-03T08:12:39;11.80;99.90
17033;DHT22;63208;52.178;21.016;2022-10-03T08:15:22;11.80;99.90
17033;DHT22;63208;52.178;21.016;2022-10-03T08:18:30;11.80;99.90
17033;DHT22;63208;52.178;21.016;2022-10-03T08:21:01;11.80;99.90
17033;DHT22;63208;52.178;21.016;2022-10-03T08:24:06;11.80;99.90
17033;DHT22;63208;52.178;21.016;2022-10-03T08:26:47;11.80;99.90
17033;DHT22;63208;52.178;21.016;2022-10-03T08:32:45;11.90;99.90
17033;DHT22;63208;52.178;21.016;2022-10-03T08:35:24;12.00;99.90
17033;DHT22;63208;52.178;21.016;2022-10-03T08:41:35;12.00;99.90
17033;DHT22;63208;52.178;21.016;2022-10-03T08:50:50;12.10;99.90
17033;DHT22;63208;52.178;21.016;2022-10-03T08:56:24;12.10;99.90
17033;DHT22;63208;52.178;21.016;2022-10-03T08:59:29;12.00;99.90
17033;DHT22;63208;52.178;21.016;2022-10-03T09:02:27;11.90;99.90
17033;DHT22;63208;52.178;21.016;2022-10-03T09:08:21;11.90;99.90
17033;DHT22;63208;52.178;21.016;2022-10-03T09:14:31;12.00;99.90
17033;DHT22;63208;52.178;21.016;2022-10-03T09:17:17;12.10;99.90
17033;DHT22;63208;52.178;21.016;2022-10-03T09:20:08;12.10;99.90
17033;DHT22;63208;52.178;21.016;2022-10-03T09:29:10;11.90;99.90
17033;DHT22;63208;52.178;21.016;2022-10-03T09:35:26;11.70;99.90
17033;DHT22;63208;52.178;21.016;2022-10-03T09:41:22;11.70;99.90
17033;DHT22;63208;52.178;21.016;2022-10-03T09:47:03;11.80;99.90
17033;DHT22;63208;52.178;21.016;2022-10-03T09:50:34;11.90;99.90
17033;DHT22;63208;52.178;21.016;2022-10-03T09:53:38;11.90;99.90
17033;DHT22;63208;52.178;21.016;2022-10-03T09:56:35;12.00;99.90
17033;DHT22;63208;52.178;21.016;2022-10-03T09:59:24;12.10;99.90
17033;DHT22;63208;52.178;21.016;2022-10-03T10:02:13;12.10;99.90
17033;DHT22;63208;52.178;21.016;2022-10-03T10:04:54;12.00;99.90
17033;DHT22;63208;52.178;21.016;2022-10-03T10:14:18;12.20;99.90
17033;DHT22;63208;52.178;21.016;2022-10-03T10:17:39;12.20;99.90
17033;DHT22;63208;52.178;21.016;2022-10-03T10:23:26;12.30;99.90
17033;DHT22;63208;52.178;21.016;2022-10-03T10:26:12;12.30;99.90
17033;DHT22;63208;52.178;21.016;2022-10-03T10:32:17;12.10;99.90
17033;DHT22;63208;52.178;21.016;2022-10-03T10:35:17;12.00;99.90
17033;DHT22;63208;52.178;21.016;2022-10-03T10:37:58;11.90;99.90
17033;DHT22;63208;52.178;21.016;2022-10-03T10:41:16;11.90;99.90
17033;DHT22;63208;52.178;21.016;2022-10-03T10:55:53;11.70;99.90
17033;DHT22;63208;52.178;21.016;2022-10-03T10:58:49;11.70;99.90
17033;DHT22;63208;52.178;21.016;2022-10-03T11:10:27;12.00;99.90
17033;DHT22;63208;52.178;21.016;2022-10-03T11:16:40;12.10;99.90
17033;DHT22;63208;52.178;21.016;2022-10-03T11:26:01;12.50;99.90
17033;DHT22;63208;52.178;21.016;2022-10-03T11:29:33;12.50;99.90
17033;DHT22;63208;52.178;21.016;2022-10-03T11:32:27;12.80;99.90
17033;DHT22;63208;52.178;21.016;2022-10-03T11:38:03;12.80;99.90
17033;DHT22;63208;52.178;21.016;2022-10-03T11:40:47;12.70;99.90
17033;DHT22;63208;52.178;21.016;2022-10-03T11:43:44;12.80;99.90
17033;DHT22;63208;52.178;21.016;2022-10-03T11:46:24;12.80;99.90
17033;DHT22;63208;52.178;21.016;2022-10-03T11:49:00;13.00;99.90
17033;DHT22;63208;52.178;21.016;2022-10-03T11:51:38;13.10;99.90
17033;DHT22;63208;52.178;21.016;2022-10-03T11:54:16;13.30;99.90
17033;DHT22;63208;52.178;21.016;2022-10-03T11:56:46;13.40;99.90
17033;DHT22;63208;52.178;21.016;2022-10-03T12:02:12;13.60;99.90
17033;DHT22;63208;52.178;21.016;2022-10-03T12:04:49;13.70;99.90
17033;DHT22;63208;52.178;21.016;2022-10-03T12:07:36;13.90;99.90
17033;DHT22;63208;52.178;21.016;2022-10-03T12:10:34;14.10;99.90
17033;DHT22;63208;52.178;21.016;2022-10-03T12:13:08;14.20;99.90
17033;DHT22;63208;52.178;21.016;2022-10-03T12:15:40;14.30;99.90
17033;DHT22;63208;52.178;21.016;2022-10-03T12:18:13;14.60;99.90
17033;DHT22;63208;52.178;21.016;2022-10-03T12:21:09;14.70;99.90
17033;DHT22;63208;52.178;21.016;2022-10-03T12:26:59;15.50;99.90
17033;DHT22;63208;52.178;21.016;2022-10-03T12:29:30;15.70;99.90
17033;DHT22;63208;52.178;21.016;2022-10-03T12:35:01;14.70;99.90
17033;DHT22;63208;52.178;21.016;2022-10-03T12:37:43;14.40;99.90
17033;DHT22;63208;52.178;21.016;2022-10-03T12:40:16;14.30;99.90
17033;DHT22;63208;52.178;21.016;2022-10-03T12:42:50;14.30;99.90
17033;DHT22;63208;52.178;21.016;2022-10-03T12:45:26;14.30;99.90
17033;DHT22;63208;52.178;21.016;2022-10-03T12:48:04;14.30;99.90
17033;DHT22;63208;52.178;21.016;2022-10-03T12:50:44;14.30;99.90
17033;DHT22;63208;52.178;21.016;2022-10-03T12:53:22;14.30;99.90
17033;DHT22;63208;52.178;21.016;2022-10-03T12:56:09;14.20;99.90
17033;DHT22;63208;52.178;21.016;2022-10-03T12:58:52;14.10;99.90
17033;DHT22;63208;52.178;21.016;2022-10-03T13:01:42;14.00;99.90
17033;DHT22;63208;52.178;21.016;2022-10-03T13:04:17;13.90;99.90
17033;DHT22;63208;52.178;21.016;2022-10-03T13:06:55;14.10;99.90
17033;DHT22;63208;52.178;21.016;2022-10-03T13:09:42;14.20;99.90
17033;DHT22;63208;52.178;21.016;2022-10-03T13:12:20;14.30;99.90
17033;DHT22;63208;52.178;21.016;2022-10-03T13:18:02;14.20;99.90
17033;DHT22;63208;52.178;21.016;2022-10-03T13:20:34;14.00;99.90
17033;DHT22;63208;52.178;21.016;2022-10-03T13:23:10;14.00;99.90
17033;DHT22;63208;52.178;21.016;2022-10-03T13:25:40;14.00;99.90
17033;DHT22;63208;52.178;21.016;2022-10-03T13:28:13;14.10;99.90
17033;DHT22;63208;52.178;21.016;2022-10-03T13:30:46;14.10;99.90
17033;DHT22;63208;52.178;21.016;2022-10-03T13:33:17;14.00;99.90
17033;DHT22;63208;52.178;21.016;2022-10-03T13:39:01;13.90;99.90
17033;DHT22;63208;52.178;21.016;2022-10-03T13:44:52;14.00;99.90
17033;DHT22;63208;52.178;21.016;2022-10-03T13:47:24;14.10;99.90
17033;DHT22;63208;52.178;21.016;2022-10-03T13:49:54;14.10;99.90
17033;DHT22;63208;52.178;21.016;2022-10-03T13:52:32;14.20;99.90
17033;DHT22;63208;52.178;21.016;2022-10-03T13:55:25;14.30;99.90
17033;DHT22;63208;52.178;21.016;2022-10-03T13:58:10;14.50;99.90
17033;DHT22;63208;52.178;21.016;2022-10-03T14:00:55;14.50;99.90
17033;DHT22;63208;52.178;21.016;2022-10-03T14:06:29;14.30;99.90
17033;DHT22;63208;52.178;21.016;2022-10-03T14:09:28;14.30;99.90
17033;DHT22;63208;52.178;21.016;2022-10-03T14:12:21;14.10;99.90
17033;DHT22;63208;52.178;21.016;2022-10-03T14:17:47;14.10;99.90
17033;DHT22;63208;52.178;21.016;2022-10-03T14:20:24;14.10;99.90
17033;DHT22;63208;52.178;21.016;2022-10-03T14:23:15;14.10;99.90
17033;DHT22;63208;52.178;21.016;2022-10-03T14:25:47;14.10;99.90
17033;DHT22;63208;52.178;21.016;2022-10-03T14:28:23;14.00;99.90
17033;DHT22;63208;52.178;21.016;2022-10-03T14:30:59;14.00;99.90
17033;DHT22;63208;52.178;21.016;2022-10-03T14:33:37;14.00;99.90
17033;DHT22;63208;52.178;21.016;2022-10-03T14:37:38;13.90;99.90
17033;DHT22;63208;52.178;21.016;2022-10-03T14:42:59;13.90;99.90
17033;DHT22;63208;52.178;21.016;2022-10-03T14:45:37;13.90;99.90
17033;DHT22;63208;52.178;21.016;2022-10-03T14:48:38;13.90;99.90
17033;DHT22;63208;52.178;21.016;2022-10-03T14:51:11;13.70;99.90
17033;DHT22;63208;52.178;21.016;2022-10-03T14:53:46;13.80;99.90
17033;DHT22;63208;52.178;21.016;2022-10-03T14:56:18;13.80;99.90
17033;DHT22;63208;52.178;21.016;2022-10-03T14:58:48;13.70;99.90
17033;DHT22;63208;52.178;21.016;2022-10-03T15:04:40;13.70;99.90
17033;DHT22;63208;52.178;21.016;2022-10-03T15:07:07;13.70;99.90
17033;DHT22;63208;52.178;21.016;2022-10-03T15:09:41;13.60;99.90
17033;DHT22;63208;52.178;21.016;2022-10-03T15:12:16;13.60;99.90
17033;DHT22;63208;52.178;21.016;2022-10-03T15:14:48;13.60;99.90
17033;DHT22;63208;52.178;21.016;2022-10-03T15:17:22;13.50;99.90
17033;DHT22;63208;52.178;21.016;2022-10-03T15:20:09;13.50;99.90
17033;DHT22;63208;52.178;21.016;2022-10-03T15:22:38;13.50;99.90
17033;DHT22;63208;52.178;21.016;2022-10-03T15:25:11;13.50;99.90
17033;DHT22;63208;52.178;21.016;2022-10-03T15:27:44;13.40;99.90
17033;DHT22;63208;52.178;21.016;2022-10-03T15:30:20;13.40;99.90
17033;DHT22;63208;52.178;21.016;2022-10-03T15:39:34;13.30;99.90
17033;DHT22;63208;52.178;21.016;2022-10-03T15:42:12;13.30;99.90
17033;DHT22;63208;52.178;21.016;2022-10-03T15:44:50;13.20;99.90
17033;DHT22;63208;52.178;21.016;2022-10-03T15:47:20;13.10;99.90
17033;DHT22;63208;52.178;21.016;2022-10-03T15:49:51;13.10;99.90
17033;DHT22;63208;52.178;21.016;2022-10-03T16:35:54;12.40;99.90
17033;DHT22;63208;52.178;21.016;2022-10-03T16:38:25;12.50;99.90
17033;DHT22;63208;52.178;21.016;2022-10-03T16:40:57;12.40;99.90
17033;DHT22;63208;52.178;21.016;2022-10-03T16:43:26;12.40;99.90
17033;DHT22;63208;52.178;21.016;2022-10-03T16:45:58;12.30;99.90
17033;DHT22;63208;52.178;21.016;2022-10-03T16:48:27;12.30;99.90
17033;DHT22;63208;52.178;21.016;2022-10-03T17:00:23;12.10;99.90
17033;DHT22;63208;52.178;21.016;2022-10-03T17:02:55;12.10;99.90
17033;DHT22;63208;52.178;21.016;2022-10-03T17:05:22;12.10;99.90
17033;DHT22;63208;52.178;21.016;2022-10-03T17:07:52;12.10;99.90
17033;DHT22;63208;52.178;21.016;2022-10-03T17:10:35;12.00;99.90
17033;DHT22;63208;52.178;21.016;2022-10-03T17:19:26;11.80;99.90
17033;DHT22;63208;52.178;21.016;2022-10-03T17:22:01;11.80;99.90
17033;DHT22;63208;52.178;21.016;2022-10-03T17:24:45;11.70;99.90
17033;DHT22;63208;52.178;21.016;2022-10-03T17:27:25;11.60;99.90
17033;DHT22;63208;52.178;21.016;2022-10-03T17:29:57;11.50;99.90
17033;DHT22;63208;52.178;21.016;2022-10-03T17:32:29;11.40;99.90
17033;DHT22;63208;52.178;21.016;2022-10-03T17:35:02;11.30;99.90
17033;DHT22;63208;52.178;21.016;2022-10-03T17:40:21;11.20;99.90
17033;DHT22;63208;52.178;21.016;2022-10-03T17:42:57;11.10;99.90
17033;DHT22;63208;52.178;21.016;2022-10-03T17:45:31;11.10;99.90
17033;DHT22;63208;52.178;21.016;2022-10-03T17:48:08;11.10;99.90
17033;DHT22;63208;52.178;21.016;2022-10-03T17:54:08;11.10;99.90
17033;DHT22;63208;52.178;21.016;2022-10-03T17:56:42;11.10;99.90
17033;DHT22;63208;52.178;21.016;2022-10-03T18:01:56;11.10;99.90
17033;DHT22;63208;52.178;21.016;2022-10-03T18:04:30;11.10;99.90
17033;DHT22;63208;52.178;21.016;2022-10-03T18:07:03;11.10;99.90
17033;DHT22;63208;52.178;21.016;2022-10-03T18:09:44;11.00;99.90
17033;DHT22;63208;52.178;21.016;2022-10-03T18:12:19;11.10;99.90
17033;DHT22;63208;52.178;21.016;2022-10-03T18:20:49;11.10;99.90
17033;DHT22;63208;52.178;21.016;2022-10-03T18:23:34;11.10;99.90
17033;DHT22;63208;52.178;21.016;2022-10-03T18:32:22;11.10;99.90
17033;DHT22;63208;52.178;21.016;2022-10-03T18:35:02;11.00;99.90
17033;DHT22;63208;52.178;21.016;2022-10-03T18:38:00;11.00;99.90
17033;DHT22;63208;52.178;21.016;2022-10-03T18:40:31;11.00;99.90
17033;DHT22;63208;52.178;21.016;2022-10-03T18:42:59;10.90;99.90
17033;DHT22;63208;52.178;21.016;2022-10-03T18:45:31;10.90;99.90
17033;DHT22;63208;52.178;21.016;2022-10-03T18:47:59;10.80;99.90
17033;DHT22;63208;52.178;21.016;2022-10-03T18:50:38;10.80;99.90
17033;DHT22;63208;52.178;21.016;2022-10-03T18:53:13;10.80;99.90
17033;DHT22;63208;52.178;21.016;2022-10-03T18:55:44;10.80;99.90
17033;DHT22;63208;52.178;21.016;2022-10-03T18:58:18;10.80;99.90
17033;DHT22;63208;52.178;21.016;2022-10-03T19:00:51;10.80;99.90
17033;DHT22;63208;52.178;21.016;2022-10-03T19:03:26;10.80;99.90
17033;DHT22;63208;52.178;21.016;2022-10-03T19:06:01;10.70;99.90
17033;DHT22;63208;52.178;21.016;2022-10-03T19:08:34;10.70;99.90
17033;DHT22;63208;52.178;21.016;2022-10-03T19:11:07;10.70;99.90
17033;DHT22;63208;52.178;21.016;2022-10-03T19:13:37;10.60;99.90
17033;DHT22;63208;52.178;21.016;2022-10-03T19:16:17;10.60;99.90
17033;DHT22;63208;52.178;21.016;2022-10-03T19:18:50;10.60;99.90
17033;DHT22;63208;52.178;21.016;2022-10-03T19:21:21;10.60;99.90
17033;DHT22;63208;52.178;21.016;2022-10-03T19:23:50;10.50;99.90
17033;DHT22;63208;52.178;21.016;2022-10-03T19:26:21;10.50;99.90
17033;DHT22;63208;52.178;21.016;2022-10-03T19:28:49;10.50;99.90
17033;DHT22;63208;52.178;21.016;2022-10-03T19:31:20;10.40;99.90
17033;DHT22;63208;52.178;21.016;2022-10-03T19:33:48;10.40;99.90
17033;DHT22;63208;52.178;21.016;2022-10-03T19:36:16;10.40;99.90
17033;DHT22;63208;52.178;21.016;2022-10-03T19:38:46;10.40;99.90
17033;DHT22;63208;52.178;21.016;2022-10-03T19:41:22;10.40;99.90
17033;DHT22;63208;52.178;21.016;2022-10-03T19:43:50;10.40;99.90
17033;DHT22;63208;52.178;21.016;2022-10-03T19:46:28;10.40;99.90
17033;DHT22;63208;52.178;21.016;2022-10-03T19:49:03;10.40;99.90
17033;DHT22;63208;52.178;21.016;2022-10-03T19:51:35;10.40;99.90
17033;DHT22;63208;52.178;21.016;2022-10-03T19:54:02;10.40;99.90
17033;DHT22;63208;52.178;21.016;2022-10-03T19:56:37;10.40;99.90
17033;DHT22;63208;52.178;21.016;2022-10-03T19:59:35;10.40;99.90
17033;DHT22;63208;52.178;21.016;2022-10-03T20:02:05;10.30;99.90
17033;DHT22;63208;52.178;21.016;2022-10-03T20:04:33;10.30;99.90
17033;DHT22;63208;52.178;21.016;2022-10-03T20:07:00;10.20;99.90
17033;DHT22;63208;52.178;21.016;2022-10-03T20:09:29;10.20;99.90
17033;DHT22;63208;52.178;21.016;2022-10-03T20:11:57;10.20;99.90
17033;DHT22;63208;52.178;21.016;2022-10-03T20:14:28;10.20;99.90
17033;DHT22;63208;52.178;21.016;2022-10-03T20:17:01;10.20;99.90
17033;DHT22;63208;52.178;21.016;2022-10-03T20:19:40;10.10;99.90
17033;DHT22;63208;52.178;21.016;2022-10-03T20:22:10;10.20;99.90
17033;DHT22;63208;52.178;21.016;2022-10-03T20:24:38;10.20;99.90
17033;DHT22;63208;52.178;21.016;2022-10-03T20:27:12;10.20;99.90
17033;DHT22;63208;52.178;21.016;2022-10-03T20:29:44;10.20;99.90
17033;DHT22;63208;52.178;21.016;2022-10-03T20:32:13;10.20;99.90
17033;DHT22;63208;52.178;21.016;2022-10-03T20:34:42;10.20;99.90
17033;DHT22;63208;52.178;21.016;2022-10-03T20:37:18;10.30;99.90
17033;DHT22;63208;52.178;21.016;2022-10-03T20:41:05;10.30;99.90
17033;DHT22;63208;52.178;21.016;2022-10-03T20:43:05;10.30;99.90
17033;DHT22;63208;52.178;21.016;2022-10-03T20:45:45;10.40;99.90
17033;DHT22;63208;52.178;21.016;2022-10-03T20:48:15;10.40;99.90
17033;DHT22;63208;52.178;21.016;2022-10-03T20:50:45;10.40;99.90
17033;DHT22;63208;52.178;21.016;2022-10-03T20:53:16;10.40;99.90
17033;DHT22;63208;52.178;21.016;2022-10-03T20:55:46;10.30;99.90
17033;DHT22;63208;52.178;21.016;2022-10-03T20:58:16;10.40;99.90
17033;DHT22;63208;52.178;21.016;2022-10-03T21:00:45;10.40;99.90
17033;DHT22;63208;52.178;21.016;2022-10-03T21:03:14;10.40;99.90
17033;DHT22;63208;52.178;21.016;2022-10-03T21:05:45;10.40;99.90
17033;DHT22;63208;52.178;21.016;2022-10-03T21:08:15;10.40;99.90
17033;DHT22;63208;52.178;21.016;2022-10-03T21:10:45;10.40;99.90
17033;DHT22;63208;52.178;21.016;2022-10-03T21:13:13;10.40;99.90
17033;DHT22;63208;52.178;21.016;2022-10-03T21:15:45;10.40;99.90
17033;DHT22;63208;52.178;21.016;2022-10-03T21:18:17;10.40;99.90
17033;DHT22;63208;52.178;21.016;2022-10-03T21:20:48;10.40;99.90
17033;DHT22;63208;52.178;21.016;2022-10-03T21:23:18;10.40;99.90
17033;DHT22;63208;52.178;21.016;2022-10-03T21:25:47;10.40;99.90
17033;DHT22;63208;52.178;21.016;2022-10-03T21:28:21;10.40;99.90
17033;DHT22;63208;52.178;21.016;2022-10-03T21:31:06;10.40;99.90
17033;DHT22;63208;52.178;21.016;2022-10-03T21:33:37;10.40;99.90
17033;DHT22;63208;52.178;21.016;2022-10-03T21:36:05;10.40;99.90
17033;DHT22;63208;52.178;21.016;2022-10-03T21:38:34;10.40;99.90